Time;durP1;ratioP1;P1;durP2;ratioP2;P2;SDS_P1;SDS_P2;PMS_P1;PMS_P2;Temp;Humidity;BMP_temperature;BMP_pressure;BME280_temperature;BME280_humidity;BME280_pressure;Samples;Min_cycle;Max_cycle;Signal;HPM_P1;HPM_P2
2022/04/03 00:00:56;;;;;;;5.28;3.00;;;;;;;-1.42;63.42;102326.97;5030482;28;20045;-80
2022/04/03 00:03:21;;;;;;;7.20;3.17;;;;;;;-1.47;63.58;102324.16;5013617;28;20461;-80
2022/04/03 00:05:47;;;;;;;7.82;3.58;;;;;;;-1.50;63.26;102329.19;5013501;28;20053;-80
2022/04/03 00:08:13;;;;;;;5.72;2.97;;;;;;;-1.56;62.48;102319.38;5030114;28;20049;-80
2022/04/03 00:10:42;;;;;;;5.10;3.25;;;;;;;-1.63;63.52;102316.38;5029992;28;20064;-79
2022/04/03 00:13:07;;;;;;;6.65;3.13;;;;;;;-1.69;63.96;102316.06;5029903;28;20029;-79
2022/04/03 00:15:36;;;;;;;5.28;3.20;;;;;;;-1.77;64.41;102324.34;5031401;28;20469;-79
2022/04/03 00:18:01;;;;;;;5.53;3.22;;;;;;;-1.90;64.08;102315.81;5038184;28;20381;-80
2022/04/03 00:20:26;;;;;;;5.43;3.33;;;;;;;-1.97;65.76;102320.72;5033071;28;20044;-79
2022/04/03 00:22:52;;;;;;;5.72;3.60;;;;;;;-2.05;65.99;102322.00;5034891;28;20063;-79
2022/04/03 00:25:18;;;;;;;6.60;3.53;;;;;;;-2.10;67.17;102327.75;5002773;28;20052;-80
2022/04/03 00:27:45;;;;;;;6.38;3.47;;;;;;;-2.18;66.93;102328.25;5029106;28;20229;-79
2022/04/03 00:30:11;;;;;;;6.80;3.20;;;;;;;-2.22;67.16;102331.50;5030775;28;20033;-79
2022/04/03 00:32:37;;;;;;;8.13;3.10;;;;;;;-2.25;66.31;102322.63;5028937;28;20147;-80
2022/04/03 00:35:07;;;;;;;6.18;3.20;;;;;;;-2.26;66.43;102328.63;5043526;28;20025;-79
2022/04/03 00:37:33;;;;;;;8.35;3.63;;;;;;;-2.27;67.32;102327.75;5048996;28;20484;-79
2022/04/03 00:39:59;;;;;;;5.55;3.28;;;;;;;-2.28;66.88;102323.34;5050772;28;20036;-79
2022/04/03 00:42:25;;;;;;;7.25;3.45;;;;;;;-2.27;67.27;102332.94;5049210;28;20037;-79
2022/04/03 00:44:50;;;;;;;8.40;4.03;;;;;;;-2.29;67.02;102329.38;5049114;28;20032;-79
2022/04/03 00:47:17;;;;;;;7.50;3.65;;;;;;;-2.30;67.35;102324.09;5015993;28;20124;-79
2022/04/03 00:49:43;;;;;;;10.15;3.85;;;;;;;-2.33;67.04;102318.75;5050527;28;20341;-79
2022/04/03 00:52:08;;;;;;;6.60;3.55;;;;;;;-2.31;67.22;102327.50;5032224;28;20034;-79
2022/04/03 00:54:35;;;;;;;9.32;3.25;;;;;;;-2.32;66.11;102321.44;4996337;28;20163;-79
2022/04/03 00:57:05;;;;;;;7.88;3.92;;;;;;;-2.33;66.79;102323.94;5029379;28;20128;-79
2022/04/03 00:59:30;;;;;;;8.32;3.63;;;;;;;-2.35;67.91;102323.81;5030489;28;20033;-79
2022/04/03 01:01:56;;;;;;;14.27;4.82;;;;;;;-2.38;68.73;102321.06;5029483;28;20456;-79
2022/04/03 01:04:21;;;;;;;8.75;4.05;;;;;;;-2.41;67.61;102323.50;5012441;28;20037;-80
2022/04/03 01:06:47;;;;;;;7.43;3.63;;;;;;;-2.43;67.84;102314.75;5012908;28;20041;-80
2022/04/03 01:09:12;;;;;;;7.25;4.13;;;;;;;-2.44;67.84;102321.66;5030138;28;20076;-80
2022/04/03 01:11:39;;;;;;;7.20;4.28;;;;;;;-2.46;68.40;102325.84;5029157;28;20033;-80
2022/04/03 01:14:05;;;;;;;10.40;4.30;;;;;;;-2.48;69.51;102323.97;5028914;28;20049;-80
2022/04/03 01:16:35;;;;;;;11.00;4.88;;;;;;;-2.54;69.83;102319.34;5006706;28;20039;-80
2022/04/03 01:19:03;;;;;;;9.32;4.30;;;;;;;-2.57;68.72;102316.59;5033820;28;20109;-80
2022/04/03 01:21:28;;;;;;;9.07;4.22;;;;;;;-2.61;69.40;102317.22;5033708;28;20031;-81
2022/04/03 01:23:55;;;;;;;8.02;4.47;;;;;;;-2.66;69.40;102319.56;5049324;28;20368;-81
2022/04/03 01:26:24;;;;;;;8.88;3.97;;;;;;;-2.70;69.39;102315.00;5032947;28;20117;-78
2022/04/03 01:28:51;;;;;;;10.27;4.13;;;;;;;-2.73;70.90;102320.03;5048870;28;20029;-79
2022/04/03 01:31:17;;;;;;;8.88;4.20;;;;;;;-2.77;70.89;102325.84;5049088;28;20036;-78
2022/04/03 01:33:43;;;;;;;6.07;3.70;;;;;;;-2.80;69.97;102325.66;5045038;28;20052;-79
2022/04/03 01:36:09;;;;;;;7.68;4.10;;;;;;;-2.87;70.88;102321.88;5030643;28;20081;-80
2022/04/03 01:38:34;;;;;;;9.10;4.15;;;;;;;-2.92;70.78;102320.69;5030298;28;20489;-80
2022/04/03 01:41:00;;;;;;;5.60;3.60;;;;;;;-2.93;71.21;102315.44;5012927;28;20109;-79
2022/04/03 01:43:25;;;;;;;8.05;4.28;;;;;;;-2.98;71.03;102312.56;5029171;28;20457;-80
2022/04/03 01:45:51;;;;;;;6.70;4.32;;;;;;;-2.97;71.50;102314.34;5029595;28;20441;-80
2022/04/03 01:48:18;;;;;;;9.10;4.45;;;;;;;-3.01;72.01;102309.81;5012865;28;20048;-80
2022/04/03 01:50:43;;;;;;;7.93;4.53;;;;;;;-3.05;73.15;102310.44;5029125;28;20029;-80
2022/04/03 01:53:09;;;;;;;10.52;4.32;;;;;;;-3.10;73.21;102307.56;5029267;28;20056;-80
2022/04/03 01:55:34;;;;;;;10.55;4.63;;;;;;;-3.12;73.51;102311.78;5012640;28;20064;-79
2022/04/03 01:58:00;;;;;;;7.97;4.10;;;;;;;-3.14;73.12;102308.22;5029382;28;20045;-80
2022/04/03 02:00:26;;;;;;;7.30;4.10;;;;;;;-3.14;73.58;102304.72;5012652;28;20448;-80
2022/04/03 02:02:52;;;;;;;9.38;4.13;;;;;;;-3.15;73.96;102302.94;5030497;28;20041;-80
2022/04/03 02:05:17;;;;;;;10.02;4.28;;;;;;;-3.17;74.08;102307.13;5031358;28;20037;-80
2022/04/03 02:07:43;;;;;;;7.63;4.30;;;;;;;-3.21;74.20;102299.97;5032714;28;20037;-80
2022/04/03 02:10:09;;;;;;;8.55;4.10;;;;;;;-3.26;74.38;102303.22;5032963;28;20041;-83
2022/04/03 02:12:39;;;;;;;7.45;4.07;;;;;;;-3.30;74.59;102305.53;5016251;28;20521;-83
2022/04/03 02:15:06;;;;;;;7.25;4.75;;;;;;;-3.36;74.66;102300.91;5032564;28;20397;-83
2022/04/03 02:17:32;;;;;;;5.22;3.60;;;;;;;-3.37;74.94;102301.69;5041611;28;20037;-83
2022/04/03 02:19:57;;;;;;;10.38;4.40;;;;;;;-3.38;75.43;102309.41;5052795;28;20118;-83
2022/04/03 02:22:23;;;;;;;10.98;4.22;;;;;;;-3.37;75.60;102303.41;5032409;28;20084;-83
2022/04/03 02:24:48;;;;;;;7.38;4.05;;;;;;;-3.42;74.90;102299.66;5032651;28;20108;-83
2022/04/03 02:27:14;;;;;;;6.93;4.00;;;;;;;-3.42;75.58;102302.25;5015816;28;20041;-82
2022/04/03 02:29:39;;;;;;;8.05;3.72;;;;;;;-3.44;74.21;102296.97;5032452;28;20112;-80
2022/04/03 02:32:05;;;;;;;5.43;3.42;;;;;;;-3.43;74.37;102301.34;5015673;28;20064;-80
2022/04/03 02:34:30;;;;;;;7.78;3.92;;;;;;;-3.44;74.32;102304.72;5043520;28;20095;-80
2022/04/03 02:36:56;;;;;;;5.97;4.18;;;;;;;-3.48;74.38;102300.19;5035283;28;20053;-80
2022/04/03 02:39:22;;;;;;;10.95;4.32;;;;;;;-3.51;75.24;102313.84;5035121;28;20041;-80
2022/04/03 02:41:48;;;;;;;6.97;3.88;;;;;;;-3.53;74.89;102301.63;5052256;28;20029;-80
2022/04/03 02:44:15;;;;;;;8.25;4.53;;;;;;;-3.49;74.35;102303.56;5052931;28;20364;-80
2022/04/03 02:46:40;;;;;;;7.63;3.70;;;;;;;-3.49;74.59;102304.50;5035368;28;20401;-82
2022/04/03 02:49:08;;;;;;;8.98;3.95;;;;;;;-3.53;74.42;102305.09;5034416;28;20085;-82
2022/04/03 02:51:37;;;;;;;6.60;3.85;;;;;;;-3.55;75.13;102311.00;5023343;28;20402;-82
2022/04/03 02:54:03;;;;;;;6.88;3.78;;;;;;;-3.55;75.46;102308.41;5031515;28;20481;-82
2022/04/03 02:56:28;;;;;;;7.30;4.07;;;;;;;-3.57;75.36;102302.25;5014487;28;20472;-82
2022/04/03 02:58:55;;;;;;;8.02;4.10;;;;;;;-3.57;74.82;102310.00;5031910;28;20033;-82
2022/04/03 03:01:21;;;;;;;7.60;4.10;;;;;;;-3.60;75.28;102302.94;5032350;28;20037;-82
2022/04/03 03:03:47;;;;;;;7.03;3.95;;;;;;;-3.60;75.45;102312.41;5031461;28;20037;-82
2022/04/03 03:06:14;;;;;;;7.65;3.92;;;;;;;-3.61;75.79;102313.19;5046491;28;20055;-82
2022/04/03 03:08:41;;;;;;;8.38;3.95;;;;;;;-3.64;75.70;102313.91;5051878;28;20481;-82
2022/04/03 03:11:07;;;;;;;6.00;3.83;;;;;;;-3.69;75.25;102308.47;5051772;28;20116;-82
2022/04/03 03:13:32;;;;;;;9.40;4.00;;;;;;;-3.70;76.09;102305.81;5053166;28;20503;-81
2022/04/03 03:15:58;;;;;;;7.95;3.72;;;;;;;-3.73;76.08;102311.69;5010046;28;20049;-82
2022/04/03 03:18:23;;;;;;;12.52;4.55;;;;;;;-3.72;76.20;102308.28;5023616;28;20408;-81
2022/04/03 03:20:49;;;;;;;7.10;3.78;;;;;;;-3.75;76.37;102315.00;5032944;28;20048;-81
2022/04/03 03:23:14;;;;;;;9.07;3.50;;;;;;;-3.77;76.48;102314.00;5028962;28;20116;-81
2022/04/03 03:25:40;;;;;;;8.38;4.22;;;;;;;-3.78;76.82;102318.28;5031348;28;20315;-81
2022/04/03 03:28:05;;;;;;;6.03;3.80;;;;;;;-3.80;76.19;102314.72;5014403;28;20034;-81
2022/04/03 03:30:31;;;;;;;8.20;4.32;;;;;;;-3.81;76.62;102323.25;5031813;28;20327;-81
2022/04/03 03:32:56;;;;;;;6.60;3.92;;;;;;;-3.84;76.40;102319.59;5032740;28;20412;-81
2022/04/03 03:35:22;;;;;;;10.65;4.13;;;;;;;-3.89;76.13;102306.38;5032827;28;20034;-81
2022/04/03 03:37:47;;;;;;;7.57;4.35;;;;;;;-3.92;75.96;102316.56;5032905;28;20378;-81
2022/04/03 03:40:14;;;;;;;7.30;3.90;;;;;;;-3.93;76.32;102314.78;5032908;28;20121;-81
2022/04/03 03:42:43;;;;;;;6.97;3.63;;;;;;;-3.93;77.19;102330.31;5032674;28;20030;-81
2022/04/03 03:45:13;;;;;;;6.18;3.60;;;;;;;-3.94;76.59;102323.31;5032924;28;20095;-81
2022/04/03 03:47:42;;;;;;;9.70;4.00;;;;;;;-3.95;76.92;102319.84;5032622;28;20036;-81
2022/04/03 03:50:07;;;;;;;6.15;3.67;;;;;;;-3.96;76.93;102319.75;5031347;28;20049;-81
2022/04/03 03:52:33;;;;;;;5.82;3.55;;;;;;;-4.00;76.84;102322.97;5047346;28;20044;-81
2022/04/03 03:54:58;;;;;;;7.57;3.88;;;;;;;-4.03;77.05;102318.50;5014700;28;20033;-81
2022/04/03 03:57:24;;;;;;;8.23;3.85;;;;;;;-4.07;76.80;102313.03;5032181;28;20037;-81
2022/04/03 03:59:50;;;;;;;8.90;4.13;;;;;;;-4.09;77.35;102322.41;5032546;28;20465;-81
2022/04/03 04:02:15;;;;;;;6.32;4.05;;;;;;;-4.09;77.92;102322.41;5030797;28;20042;-81
2022/04/03 04:04:41;;;;;;;10.88;4.70;;;;;;;-4.11;77.53;102324.88;5030917;28;20025;-80
2022/04/03 04:07:06;;;;;;;5.63;3.55;;;;;;;-4.13;77.74;102316.13;5031140;28;20456;-81
2022/04/03 04:09:32;;;;;;;7.00;4.38;;;;;;;-4.20;77.61;102307.13;5014693;28;20467;-81
2022/04/03 04:11:58;;;;;;;7.00;4.13;;;;;;;-4.19;77.98;102321.81;5030988;28;20029;-80
2022/04/03 04:14:23;;;;;;;8.30;3.78;;;;;;;-4.21;77.62;102315.66;5014498;28;20037;-81
2022/04/03 04:16:49;;;;;;;8.65;4.30;;;;;;;-4.20;78.36;102321.75;5046058;28;20460;-81
2022/04/03 04:19:18;;;;;;;6.53;4.20;;;;;;;-4.23;78.00;102322.44;5051817;28;20045;-81
2022/04/03 04:21:43;;;;;;;8.07;4.18;;;;;;;-4.23;77.71;102325.00;5030030;28;20025;-81
2022/04/03 04:24:10;;;;;;;7.13;4.35;;;;;;;-4.20;77.80;102322.63;5029994;28;20041;-80
2022/04/03 04:26:35;;;;;;;5.35;3.58;;;;;;;-4.17;76.79;102329.69;5031087;28;20037;-81
2022/04/03 04:29:01;;;;;;;7.25;3.92;;;;;;;-4.13;77.71;102331.66;5029168;28;20493;-81
2022/04/03 04:31:26;;;;;;;8.38;4.90;;;;;;;-4.12;77.25;102333.47;5046441;28;20025;-81
2022/04/03 04:33:52;;;;;;;10.70;4.18;;;;;;;-4.08;76.93;102325.06;5034605;28;20059;-81
2022/04/03 04:36:17;;;;;;;7.25;4.65;;;;;;;-4.01;77.78;102324.63;5049460;28;20488;-81
2022/04/03 04:38:43;;;;;;;6.82;4.35;;;;;;;-3.93;78.06;102322.56;5050609;28;20052;-81
2022/04/03 04:41:08;;;;;;;9.88;5.07;;;;;;;-3.86;78.14;102328.97;5049943;28;20021;-81
2022/04/03 04:43:34;;;;;;;9.25;4.13;;;;;;;-3.86;77.76;102327.25;5051094;28;20029;-81
2022/04/03 04:46:00;;;;;;;7.88;4.25;;;;;;;-3.85;77.17;102336.84;5049524;28;20112;-81
2022/04/03 04:48:25;;;;;;;7.18;4.13;;;;;;;-3.89;77.09;102330.56;5050019;28;20047;-81
2022/04/03 04:50:51;;;;;;;9.65;3.72;;;;;;;-3.92;76.57;102334.69;5044084;28;20060;-81
2022/04/03 04:53:17;;;;;;;8.05;4.10;;;;;;;-3.94;76.96;102334.56;5031333;28;20529;-81
2022/04/03 04:55:42;;;;;;;9.48;4.32;;;;;;;-3.98;76.80;102336.88;5029995;28;20417;-81
2022/04/03 04:58:08;;;;;;;8.15;4.30;;;;;;;-4.00;77.03;102336.81;5029813;28;20057;-81
2022/04/03 05:00:33;;;;;;;5.68;3.88;;;;;;;-4.06;77.38;102344.16;5029918;28;20037;-81
2022/04/03 05:02:59;;;;;;;8.02;4.57;;;;;;;-4.08;77.86;102347.47;5030057;28;20051;-81
2022/04/03 05:05:27;;;;;;;7.47;4.20;;;;;;;-4.09;76.98;102348.28;5029759;28;20103;-81
2022/04/03 05:07:58;;;;;;;5.63;4.10;;;;;;;-4.08;76.95;102358.69;5029781;28;20033;-81
2022/04/03 05:10:25;;;;;;;8.98;4.65;;;;;;;-4.07;77.18;102351.84;5031470;28;20095;-81
2022/04/03 05:12:52;;;;;;;11.15;3.95;;;;;;;-4.06;76.97;102359.69;5031237;28;20179;-81
2022/04/03 05:15:18;;;;;;;6.55;4.40;;;;;;;-4.07;77.19;102357.03;5033416;28;20034;-81
2022/04/03 05:17:44;;;;;;;7.93;4.40;;;;;;;-4.06;77.38;102359.69;5017157;28;20045;-81
2022/04/03 05:20:12;;;;;;;9.70;4.45;;;;;;;-4.09;77.45;102362.09;5050159;28;20070;-81
2022/04/03 05:22:38;;;;;;;6.75;4.63;;;;;;;-4.07;77.53;102362.22;5049522;28;20037;-81
2022/04/03 05:25:05;;;;;;;7.95;4.57;;;;;;;-4.03;79.52;102359.91;5049465;28;20037;-81
2022/04/03 05:27:32;;;;;;;7.10;4.65;;;;;;;-3.98;79.92;102361.09;5051412;28;20190;-82
2022/04/03 05:29:57;;;;;;;8.40;4.82;;;;;;;-3.91;79.45;102362.34;5034252;28;20025;-82
2022/04/03 05:32:28;;;;;;;11.75;5.88;;;;;;;-3.86;79.32;102366.09;5034184;28;20044;-82
2022/04/03 05:34:55;;;;;;;10.95;5.80;;;;;;;-3.80;79.84;102369.06;5030546;28;20076;-82
2022/04/03 05:37:21;;;;;;;9.48;5.40;;;;;;;-3.75;79.94;102364.19;5031210;28;20473;-82
2022/04/03 05:39:47;;;;;;;11.30;6.03;;;;;;;-3.69;79.83;102370.59;5031495;28;20072;-82
2022/04/03 05:42:13;;;;;;;11.77;6.00;;;;;;;-3.61;79.64;102362.41;5035346;28;20128;-82
2022/04/03 05:44:39;;;;;;;10.55;5.88;;;;;;;-3.56;79.40;102368.75;5017350;28;20091;-83
2022/04/03 05:47:05;;;;;;;8.45;5.22;;;;;;;-3.51;79.20;102363.06;5033677;28;20556;-83
2022/04/03 05:49:31;;;;;;;10.40;5.35;;;;;;;-3.44;79.73;102366.00;5034056;28;20041;-83
2022/04/03 05:51:56;;;;;;;11.95;5.28;;;;;;;-3.38;79.65;102361.22;5044557;28;20108;-83
2022/04/03 05:54:22;;;;;;;14.77;5.72;;;;;;;-3.34;79.12;102364.06;5050508;28;20042;-83
2022/04/03 05:56:48;;;;;;;10.73;6.05;;;;;;;-3.22;79.59;102374.22;5050117;28;20040;-83
2022/04/03 05:59:14;;;;;;;9.63;5.47;;;;;;;-3.13;79.03;102371.31;5050351;28;20535;-83
2022/04/03 06:01:40;;;;;;;9.77;6.30;;;;;;;-3.05;79.26;102383.00;5050425;28;20123;-83
2022/04/03 06:04:05;;;;;;;9.15;5.57;;;;;;;-2.97;78.32;102376.56;5033330;28;20045;-83
2022/04/03 06:06:31;;;;;;;10.40;5.45;;;;;;;-2.90;78.77;102383.88;5034813;28;20046;-83
2022/04/03 06:08:56;;;;;;;11.98;6.10;;;;;;;-2.83;78.72;102375.66;5050369;28;20041;-83
2022/04/03 06:11:22;;;;;;;11.85;6.20;;;;;;;-2.77;78.95;102375.09;5034462;28;20087;-83
2022/04/03 06:13:47;;;;;;;11.52;6.03;;;;;;;-2.68;79.23;102386.00;5049634;28;20121;-84
2022/04/03 06:16:13;;;;;;;14.52;6.32;;;;;;;-2.58;78.81;102383.94;5036206;28;20076;-84
2022/04/03 06:18:39;;;;;;;12.45;6.60;;;;;;;-2.50;79.17;102383.53;5037842;28;20129;-80
2022/04/03 06:21:04;;;;;;;9.25;5.40;;;;;;;-2.43;78.77;102380.50;5033289;28;20544;-80
2022/04/03 06:23:30;;;;;;;12.90;5.60;;;;;;;-2.34;78.92;102380.13;5053382;28;20448;-80
2022/04/03 06:25:57;;;;;;;10.65;6.10;;;;;;;-2.27;78.80;102377.06;5051960;28;20327;-80
2022/04/03 06:28:23;;;;;;;10.35;6.32;;;;;;;-2.20;78.99;102371.41;5035236;28;20033;-79
2022/04/03 06:30:49;;;;;;;11.98;6.70;;;;;;;-2.17;79.04;102379.34;5051891;28;20037;-79
2022/04/03 06:33:17;;;;;;;12.75;5.60;;;;;;;-2.13;78.19;102379.50;5050670;28;20052;-79
2022/04/03 06:35:45;;;;;;;13.00;6.07;;;;;;;-2.10;78.17;102385.78;5031473;28;20040;-79
2022/04/03 06:38:12;;;;;;;10.00;5.05;;;;;;;-2.03;78.41;102385.31;5031737;28;20045;-79
2022/04/03 06:40:40;;;;;;;13.13;5.00;;;;;;;-2.00;77.92;102377.66;5015243;28;20046;-79
2022/04/03 06:43:06;;;;;;;11.02;6.22;;;;;;;-1.97;78.50;102377.81;5031500;28;20046;-79
2022/04/03 06:45:32;;;;;;;7.72;5.57;;;;;;;-1.96;77.88;102384.78;5033047;28;20049;-79
2022/04/03 06:47:58;;;;;;;13.00;6.20;;;;;;;-1.92;77.87;102383.28;5031895;28;20045;-79
2022/04/03 06:50:24;;;;;;;14.63;6.57;;;;;;;-1.87;78.38;102381.81;5030917;28;20153;-79
2022/04/03 06:52:50;;;;;;;10.45;5.32;;;;;;;-1.79;77.89;102384.81;5015177;28;20091;-78
2022/04/03 06:55:15;;;;;;;13.60;5.90;;;;;;;-1.70;78.59;102376.63;5015414;28;20041;-78
2022/04/03 06:57:41;;;;;;;9.75;5.45;;;;;;;-1.57;78.43;102385.13;5031733;28;20105;-78
2022/04/03 07:00:08;;;;;;;11.48;5.75;;;;;;;-1.42;78.55;102378.94;5033552;28;20230;-78
2022/04/03 07:02:35;;;;;;;14.00;5.18;;;;;;;-1.31;78.81;102376.09;5031662;28;20022;-78
2022/04/03 07:05:02;;;;;;;11.82;6.03;;;;;;;-1.17;78.64;102381.09;5033268;28;20053;-78
2022/04/03 07:07:27;;;;;;;9.13;5.90;;;;;;;-1.06;78.58;102384.22;5031526;28;20108;-78
2022/04/03 07:09:53;;;;;;;10.18;6.13;;;;;;;-0.91;78.57;102382.41;5015813;28;20120;-78
2022/04/03 07:12:20;;;;;;;12.95;6.72;;;;;;;-0.80;78.78;102380.34;5031302;28;20060;-78
2022/04/03 07:14:46;;;;;;;13.60;5.70;;;;;;;-0.69;78.47;102374.84;5032672;28;20087;-78
2022/04/03 07:17:11;;;;;;;12.07;6.10;;;;;;;-0.56;78.48;102375.44;5038600;28;20245;-78
2022/04/03 07:19:37;;;;;;;8.45;5.55;;;;;;;-0.43;78.65;102375.19;5034673;28;20056;-78
2022/04/03 07:22:03;;;;;;;10.98;5.97;;;;;;;-0.29;79.13;102381.94;5043128;28;20037;-78
2022/04/03 07:24:29;;;;;;;12.85;6.35;;;;;;;-0.13;79.16;102380.06;5016928;28;20040;-79
2022/04/03 07:26:54;;;;;;;11.48;6.47;;;;;;;0.00;78.94;102374.63;5051202;28;20164;-79
2022/04/03 07:29:21;;;;;;;10.07;6.47;;;;;;;0.16;78.62;102379.69;5034184;28;20062;-80
2022/04/03 07:31:47;;;;;;;11.15;6.40;;;;;;;0.31;78.45;102379.47;5034262;28;20029;-80
2022/04/03 07:34:12;;;;;;;15.00;6.45;;;;;;;0.48;78.32;102377.63;5041015;28;20432;-81
2022/04/03 07:36:38;;;;;;;9.27;6.55;;;;;;;0.66;78.04;102381.84;5031952;28;20128;-81
2022/04/03 07:39:04;;;;;;;12.10;6.30;;;;;;;0.80;77.88;102388.56;5030886;28;20056;-80
2022/04/03 07:41:29;;;;;;;9.45;6.18;;;;;;;0.96;77.03;102383.16;5030775;28;20044;-80
2022/04/03 07:43:55;;;;;;;10.77;6.13;;;;;;;1.12;77.21;102387.31;5032115;28;20032;-80
2022/04/03 07:46:21;;;;;;;10.73;6.20;;;;;;;1.27;76.84;102389.66;5030452;28;20074;-80
2022/04/03 07:48:46;;;;;;;11.75;6.05;;;;;;;1.43;76.61;102381.59;5014398;28;20055;-80
2022/04/03 07:51:12;;;;;;;7.20;4.40;;;;;;;1.58;74.88;102386.53;5040508;28;20024;-81
2022/04/03 07:53:38;;;;;;;9.55;4.75;;;;;;;1.75;74.62;102386.34;5052224;28;20033;-81
2022/04/03 07:56:05;;;;;;;7.88;4.63;;;;;;;1.94;73.80;102386.22;5051759;28;20105;-81
2022/04/03 07:58:35;;;;;;;8.60;4.85;;;;;;;2.09;73.47;102376.34;5050347;28;20426;-81
2022/04/03 08:01:01;;;;;;;8.02;4.43;;;;;;;2.26;72.89;102382.19;5051942;28;20361;-82
2022/04/03 08:03:26;;;;;;;7.53;3.72;;;;;;;2.43;70.85;102382.81;5049311;28;20416;-81
2022/04/03 08:05:54;;;;;;;4.68;3.03;;;;;;;2.57;68.84;102383.28;5052124;28;20061;-81
2022/04/03 08:08:19;;;;;;;5.18;3.20;;;;;;;2.71;67.81;102374.22;5051807;28;20091;-81
2022/04/03 08:10:45;;;;;;;5.60;3.50;;;;;;;2.87;66.27;102383.50;5050809;28;20037;-82
2022/04/03 08:13:11;;;;;;;9.02;2.88;;;;;;;2.96;64.83;102382.91;5034113;28;20097;-82
2022/04/03 08:15:36;;;;;;;7.65;2.97;;;;;;;3.07;64.53;102378.94;5048775;28;20037;-82
2022/04/03 08:18:02;;;;;;;9.27;2.63;;;;;;;3.20;63.64;102378.50;5040523;28;20333;-82
2022/04/03 08:20:27;;;;;;;3.65;2.40;;;;;;;3.32;63.45;102380.63;5034026;28;20376;-82
2022/04/03 08:22:53;;;;;;;4.72;2.28;;;;;;;3.41;63.16;102378.31;5034228;28;20141;-82
2022/04/03 08:25:19;;;;;;;5.35;2.70;;;;;;;3.52;62.83;102373.41;5014421;28;20492;-82
2022/04/03 08:27:53;;;;;;;4.88;2.40;;;;;;;3.72;63.12;102374.03;5014020;28;20037;-82
2022/04/03 08:30:22;;;;;;;3.20;2.05;;;;;;;3.83;62.97;102379.59;5030818;28;20046;-82
2022/04/03 08:32:48;;;;;;;3.25;2.38;;;;;;;3.90;61.47;102378.94;5030673;28;20401;-82
2022/04/03 08:35:15;;;;;;;3.95;2.42;;;;;;;3.98;61.67;102384.41;5047799;28;20048;-82
2022/04/03 08:37:42;;;;;;;4.93;2.70;;;;;;;4.02;60.53;102379.31;5049811;28;20049;-83
2022/04/03 08:40:08;;;;;;;4.88;2.58;;;;;;;4.11;61.33;102381.34;5050094;28;20071;-82
2022/04/03 08:42:35;;;;;;;3.65;2.15;;;;;;;4.25;61.47;102384.34;5051554;28;20099;-82
2022/04/03 08:45:02;;;;;;;6.88;2.78;;;;;;;4.38;61.71;102385.59;5020691;28;20028;-82
2022/04/03 08:47:29;;;;;;;4.55;2.60;;;;;;;4.46;60.96;102382.34;5015695;28;20443;-82
2022/04/03 08:50:00;;;;;;;5.50;2.88;;;;;;;4.58;60.58;102387.03;5020235;28;20032;-86
2022/04/03 08:52:32;;;;;;;6.53;2.22;;;;;;;4.67;59.00;102382.03;5046153;28;20021;-86
2022/04/03 08:54:59;;;;;;;10.60;2.55;;;;;;;4.85;58.80;102381.66;5001473;28;20038;-87
2022/04/03 08:57:24;;;;;;;4.10;2.67;;;;;;;5.09;58.90;102384.00;5025248;28;20049;-85
2022/04/03 08:59:51;;;;;;;4.88;1.98;;;;;;;5.15;56.61;102388.53;5013655;28;20041;-86
2022/04/03 09:02:16;;;;;;;5.35;2.13;;;;;;;5.08;56.68;102387.47;5031499;28;20022;-85
2022/04/03 09:04:42;;;;;;;3.58;2.10;;;;;;;5.07;57.67;102388.34;5029040;28;20333;-85
2022/04/03 09:07:16;;;;;;;4.65;2.10;;;;;;;5.11;57.72;102382.28;5012954;28;20144;-86
2022/04/03 09:09:41;;;;;;;8.30;2.33;;;;;;;5.08;57.29;102382.22;5013932;28;20060;-87
2022/04/03 09:12:12;;;;;;;7.70;2.45;;;;;;;5.05;57.50;102387.41;5030127;28;20033;-86
2022/04/03 09:14:49;;;;;;;3.40;2.38;;;;;;;5.05;58.32;102379.53;5031144;28;20107;-85
2022/04/03 09:17:37;;;;;;;5.82;2.28;;;;;;;4.94;57.48;102379.22;5038806;28;20119;-86
2022/04/03 09:20:09;;;;;;;4.45;2.63;;;;;;;5.08;58.27;102382.22;5033355;28;20113;-86
2022/04/03 09:22:37;;;;;;;3.85;2.10;;;;;;;5.32;56.32;102376.72;5051109;28;20087;-86
2022/04/03 09:25:09;;;;;;;3.97;2.22;;;;;;;5.52;55.71;102366.66;5051400;28;20025;-87
2022/04/03 09:27:44;;;;;;;5.72;2.20;;;;;;;5.71;55.78;102372.34;5051270;28;20044;-86
2022/04/03 09:30:10;;;;;;;4.28;2.30;;;;;;;5.88;55.21;102364.81;5034723;28;20041;-86
2022/04/03 09:32:46;;;;;;;4.90;2.20;;;;;;;6.03;54.39;102370.44;5033260;28;20131;-86
2022/04/03 09:35:12;;;;;;;3.30;1.52;;;;;;;6.21;53.41;102362.97;5049555;28;20037;-86
2022/04/03 09:37:37;;;;;;;4.13;1.52;;;;;;;6.39;51.98;102367.69;5033231;28;20080;-86
2022/04/03 09:40:03;;;;;;;3.17;1.70;;;;;;;6.28;51.03;102363.97;5016692;28;20435;-86
2022/04/03 09:42:30;;;;;;;3.45;1.73;;;;;;;6.26;51.92;102360.41;5033415;28;20029;-86
2022/04/03 09:44:55;;;;;;;4.55;1.85;;;;;;;6.53;51.75;102356.53;5049687;28;20037;-86
2022/04/03 09:47:33;;;;;;;7.57;1.55;;;;;;;6.72;50.98;102348.13;5049763;28;20029;-85
2022/04/03 09:50:02;;;;;;;2.85;1.48;;;;;;;6.87;49.48;102342.25;5051166;28;20727;-86
2022/04/03 09:52:48;;;;;;;5.63;1.70;;;;;;;7.05;49.73;102337.31;5031287;28;20477;-86
2022/04/03 09:55:28;;;;;;;4.35;1.73;;;;;;;7.33;51.01;102341.25;4982082;28;20400;-86
2022/04/03 09:58:05;;;;;;;3.70;1.60;;;;;;;7.77;49.06;102337.50;5013837;28;20132;-86
2022/04/03 10:00:37;;;;;;;2.15;1.30;;;;;;;7.82;48.54;102342.84;5013714;28;20120;-86
2022/04/03 10:03:03;;;;;;;3.17;1.45;;;;;;;7.79;47.27;102340.16;5030796;28;20355;-87
2022/04/03 10:05:30;;;;;;;3.55;1.60;;;;;;;7.31;46.40;102331.56;5013234;28;20071;-87
2022/04/03 10:08:01;;;;;;;3.08;1.60;;;;;;;7.05;47.42;102323.25;5029539;28;20048;-86
2022/04/03 10:10:27;;;;;;;1.83;1.23;;;;;;;7.20;48.58;102333.16;5013205;28;20038;-86
2022/04/03 10:12:55;;;;;;;5.07;1.60;;;;;;;7.35;46.65;102321.97;4996855;28;20647;-86
2022/04/03 10:15:22;;;;;;;6.28;1.80;;;;;;;7.40;47.72;102326.44;5033588;28;20242;-86
2022/04/03 10:17:47;;;;;;;5.15;1.90;;;;;;;7.35;48.30;102330.75;5038219;28;20116;-86
2022/04/03 10:20:14;;;;;;;3.20;1.92;;;;;;;7.28;47.91;102321.88;5032631;28;20473;-86
2022/04/03 10:22:43;;;;;;;3.80;1.52;;;;;;;7.27;48.40;102313.91;5017571;28;20485;-86
2022/04/03 10:25:14;;;;;;;5.13;2.33;;;;;;;7.32;48.45;102315.78;5013340;28;20380;-87
2022/04/03 10:27:42;;;;;;;4.28;2.10;;;;;;;7.39;46.86;102323.78;5032734;28;20037;-86
2022/04/03 10:30:10;;;;;;;5.85;2.00;;;;;;;7.85;48.62;102301.56;5033656;28;20389;-86
2022/04/03 10:32:36;;;;;;;3.72;1.90;;;;;;;8.07;46.08;102307.13;5034086;28;20083;-87
2022/04/03 10:35:10;;;;;;;9.27;2.42;;;;;;;7.94;47.31;102301.69;5033272;28;20383;-87
2022/04/03 10:37:40;;;;;;;6.38;2.17;;;;;;;7.67;46.13;102315.41;5054341;28;20076;-86
2022/04/03 10:40:17;;;;;;;4.35;1.95;;;;;;;7.58;47.45;102314.38;5055245;28;20573;-86
2022/04/03 10:43:03;;;;;;;4.15;1.73;;;;;;;7.50;48.60;102307.25;5054450;28;20545;-86
2022/04/03 10:45:28;;;;;;;2.63;1.55;;;;;;;7.43;47.61;102309.78;5053305;28;20043;-86
2022/04/03 10:48:23;;;;;;;4.05;1.80;;;;;;;7.50;47.55;102309.00;5054299;28;20088;-86
2022/04/03 10:50:59;;;;;;;3.53;1.70;;;;;;;7.61;46.10;102301.25;5049386;28;20037;-86
2022/04/03 10:53:26;;;;;;;5.57;1.65;;;;;;;7.49;44.78;102297.59;5033026;28;20037;-86
2022/04/03 10:55:55;;;;;;;4.65;1.60;;;;;;;7.43;45.64;102301.88;5034447;28;20041;-84
2022/04/03 10:58:21;;;;;;;6.30;1.90;;;;;;;7.39;46.50;102302.69;5034276;28;20040;-85
2022/04/03 11:00:49;;;;;;;5.90;2.22;;;;;;;7.52;46.00;102304.66;5017423;28;20045;-85
2022/04/03 11:03:14;;;;;;;4.28;1.65;;;;;;;7.54;45.81;102292.34;5033941;28;20055;-84
2022/04/03 11:05:42;;;;;;;4.72;1.80;;;;;;;7.31;45.75;102289.41;5017107;28;20528;-83
2022/04/03 11:08:08;;;;;;;4.88;1.80;;;;;;;7.20;46.52;102291.00;5045736;28;20106;-83
2022/04/03 11:10:55;;;;;;;3.42;1.48;;;;;;;7.23;46.35;102294.56;5053175;28;20453;-84
2022/04/03 11:13:38;;;;;;;2.67;1.30;;;;;;;7.22;46.80;102291.88;5053003;28;20502;-84
2022/04/03 11:16:12;;;;;;;3.58;2.00;;;;;;;7.17;45.52;102285.66;5042969;28;20045;-86
2022/04/03 11:18:42;;;;;;;2.25;1.40;;;;;;;7.17;46.82;102280.41;5017853;28;20037;-86
2022/04/03 11:21:16;;;;;;;3.92;1.77;;;;;;;7.25;47.44;102287.56;5033815;28;20056;-86
2022/04/03 11:24:04;;;;;;;5.75;1.80;;;;;;;7.29;48.41;102283.22;5034133;28;20030;-84
2022/04/03 11:26:30;;;;;;;5.60;2.10;;;;;;;7.36;47.58;102285.06;5032310;28;20061;-84